sensor_id;sensor_type;location;lat;lon;timestamp;pressure;altitude;pressure_sealevel;temperature;humidity
11038;BME280;5572;49.540;11.932;2023-02-10T00:01:16;98124.22;;;-7.25;100.00
11038;BME280;5572;49.540;11.932;2023-02-10T00:03:45;98123.66;;;-7.28;100.00
11038;BME280;5572;49.540;11.932;2023-02-10T00:06:13;98123.56;;;-7.46;100.00
11038;BME280;5572;49.540;11.932;2023-02-10T00:08:40;98118.00;;;-7.33;100.00
11038;BME280;5572;49.540;11.932;2023-02-10T00:11:09;98114.44;;;-7.42;100.00
11038;BME280;5572;49.540;11.932;2023-02-10T00:13:37;98118.88;;;-7.52;100.00
11038;BME280;5572;49.540;11.932;2023-02-10T00:16:05;98103.81;;;-7.50;100.00
11038;BME280;5572;49.540;11.932;2023-02-10T00:18:33;98096.19;;;-7.43;100.00
11038;BME280;5572;49.540;11.932;2023-02-10T00:21:07;98090.41;;;-7.47;100.00
11038;BME280;5572;49.540;11.932;2023-02-10T00:23:33;98093.59;;;-7.53;100.00
11038;BME280;5572;49.540;11.932;2023-02-10T00:26:02;98092.94;;;-7.64;100.00
11038;BME280;5572;49.540;11.932;2023-02-10T00:28:29;98088.06;;;-7.59;100.00
11038;BME280;5572;49.540;11.932;2023-02-10T00:30:56;98094.03;;;-7.66;100.00
11038;BME280;5572;49.540;11.932;2023-02-10T00:33:23;98086.28;;;-7.77;100.00
11038;BME280;5572;49.540;11.932;2023-02-10T00:35:49;98073.06;;;-7.76;100.00
11038;BME280;5572;49.540;11.932;2023-02-10T00:38:17;98073.19;;;-7.77;100.00
11038;BME280;5572;49.540;11.932;2023-02-10T00:40:44;98085.34;;;-7.86;100.00
11038;BME280;5572;49.540;11.932;2023-02-10T00:43:11;98070.72;;;-7.79;100.00
11038;BME280;5572;49.540;11.932;2023-02-10T00:45:37;98068.78;;;-7.77;100.00
11038;BME280;5572;49.540;11.932;2023-02-10T00:48:04;98061.06;;;-7.88;100.00
11038;BME280;5572;49.540;11.932;2023-02-10T00:50:31;98062.13;;;-7.81;100.00
11038;BME280;5572;49.540;11.932;2023-02-10T00:52:57;98063.94;;;-7.91;100.00
11038;BME280;5572;49.540;11.932;2023-02-10T00:55:25;98064.81;;;-8.09;100.00
11038;BME280;5572;49.540;11.932;2023-02-10T00:57:52;98057.06;;;-8.01;100.00
11038;BME280;5572;49.540;11.932;2023-02-10T01:00:18;98047.50;;;-7.93;100.00
11038;BME280;5572;49.540;11.932;2023-02-10T01:02:45;98054.56;;;-8.03;100.00
11038;BME280;5572;49.540;11.932;2023-02-10T01:05:12;98043.13;;;-8.11;100.00
11038;BME280;5572;49.540;11.932;2023-02-10T01:07:38;98045.44;;;-8.08;100.00
11038;BME280;5572;49.540;11.932;2023-02-10T01:10:05;98047.25;;;-8.09;100.00
11038;BME280;5572;49.540;11.932;2023-02-10T01:12:33;98040.78;;;-8.05;100.00
11038;BME280;5572;49.540;11.932;2023-02-10T01:14:59;98020.31;;;-7.92;100.00
11038;BME280;5572;49.540;11.932;2023-02-10T01:17:26;98023.38;;;-7.96;100.00
11038;BME280;5572;49.540;11.932;2023-02-10T01:19:52;98029.06;;;-8.20;100.00
11038;BME280;5572;49.540;11.932;2023-02-10T01:22:19;98024.53;;;-8.18;100.00
11038;BME280;5572;49.540;11.932;2023-02-10T01:24:46;98026.84;;;-8.15;100.00
11038;BME280;5572;49.540;11.932;2023-02-10T01:27:12;98037.78;;;-8.29;100.00
11038;BME280;5572;49.540;11.932;2023-02-10T01:29:40;98039.69;;;-8.31;100.00
11038;BME280;5572;49.540;11.932;2023-02-10T01:32:07;98045.22;;;-8.43;100.00
11038;BME280;5572;49.540;11.932;2023-02-10T01:34:35;98034.75;;;-8.34;100.00
11038;BME280;5572;49.540;11.932;2023-02-10T01:37:02;98032.13;;;-8.34;100.00
11038;BME280;5572;49.540;11.932;2023-02-10T01:39:29;98049.06;;;-8.47;100.00
11038;BME280;5572;49.540;11.932;2023-02-10T01:41:56;98050.47;;;-8.43;100.00
11038;BME280;5572;49.540;11.932;2023-02-10T01:47:28;98029.50;;;-8.24;100.00
11038;BME280;5572;49.540;11.932;2023-02-10T01:49:54;98032.25;;;-8.35;100.00
11038;BME280;5572;49.540;11.932;2023-02-10T01:52:23;98046.31;;;-8.55;100.00
11038;BME280;5572;49.540;11.932;2023-02-10T01:54:58;98024.28;;;-8.34;100.00
11038;BME280;5572;49.540;11.932;2023-02-10T01:57:26;98030.44;;;-8.44;100.00
11038;BME280;5572;49.540;11.932;2023-02-10T01:59:53;98034.16;;;-8.56;100.00
11038;BME280;5572;49.540;11.932;2023-02-10T02:02:20;98043.28;;;-8.60;100.00
11038;BME280;5572;49.540;11.932;2023-02-10T02:04:50;98032.38;;;-8.55;100.00
11038;BME280;5572;49.540;11.932;2023-02-10T02:07:18;98029.47;;;-8.52;100.00
11038;BME280;5572;49.540;11.932;2023-02-10T02:09:46;98030.59;;;-8.64;100.00
11038;BME280;5572;49.540;11.932;2023-02-10T02:12:20;98046.56;;;-8.67;100.00
11038;BME280;5572;49.540;11.932;2023-02-10T02:14:55;98039.09;;;-8.62;100.00
11038;BME280;5572;49.540;11.932;2023-02-10T02:17:28;98022.03;;;-8.57;100.00
11038;BME280;5572;49.540;11.932;2023-02-10T02:20:25;98026.03;;;-8.53;100.00
11038;BME280;5572;49.540;11.932;2023-02-10T02:23:28;98031.09;;;-8.70;100.00
11038;BME280;5572;49.540;11.932;2023-02-10T02:26:19;98031.25;;;-8.72;100.00
11038;BME280;5572;49.540;11.932;2023-02-10T02:29:06;98033.72;;;-8.80;100.00
11038;BME280;5572;49.540;11.932;2023-02-10T02:31:48;98030.00;;;-8.77;100.00
11038;BME280;5572;49.540;11.932;2023-02-10T02:34:22;98042.25;;;-8.87;100.00
11038;BME280;5572;49.540;11.932;2023-02-10T02:36:57;98045.00;;;-8.79;100.00
11038;BME280;5572;49.540;11.932;2023-02-10T02:39:26;98033.03;;;-8.82;100.00
11038;BME280;5572;49.540;11.932;2023-02-10T02:42:15;98045.38;;;-8.93;100.00
11038;BME280;5572;49.540;11.932;2023-02-10T02:44:43;98036.31;;;-8.89;100.00
11038;BME280;5572;49.540;11.932;2023-02-10T02:47:28;98027.53;;;-8.79;100.00
11038;BME280;5572;49.540;11.932;2023-02-10T02:50:05;98024.75;;;-8.77;100.00
11038;BME280;5572;49.540;11.932;2023-02-10T02:52:44;98016.75;;;-8.76;100.00
11038;BME280;5572;49.540;11.932;2023-02-10T02:55:26;98038.63;;;-9.05;100.00
11038;BME280;5572;49.540;11.932;2023-02-10T02:58:00;98020.75;;;-8.81;100.00
11038;BME280;5572;49.540;11.932;2023-02-10T03:00:31;98021.03;;;-8.84;100.00
11038;BME280;5572;49.540;11.932;2023-02-10T03:03:01;98034.91;;;-8.93;100.00
11038;BME280;5572;49.540;11.932;2023-02-10T03:05:30;98037.38;;;-9.01;100.00
11038;BME280;5572;49.540;11.932;2023-02-10T03:07:57;98035.59;;;-9.01;100.00
11038;BME280;5572;49.540;11.932;2023-02-10T03:10:24;98035.03;;;-9.04;100.00
11038;BME280;5572;49.540;11.932;2023-02-10T03:12:51;98042.59;;;-9.01;100.00
11038;BME280;5572;49.540;11.932;2023-02-10T03:15:17;98032.69;;;-8.98;100.00
11038;BME280;5572;49.540;11.932;2023-02-10T03:17:44;98045.13;;;-9.00;100.00
11038;BME280;5572;49.540;11.932;2023-02-10T03:20:12;98055.97;;;-9.04;100.00
11038;BME280;5572;49.540;11.932;2023-02-10T03:22:40;98059.38;;;-9.13;100.00
11038;BME280;5572;49.540;11.932;2023-02-10T03:25:07;98053.88;;;-9.10;100.00
11038;BME280;5572;49.540;11.932;2023-02-10T03:27:34;98057.53;;;-9.31;100.00
11038;BME280;5572;49.540;11.932;2023-02-10T03:30:01;98044.91;;;-9.08;100.00
11038;BME280;5572;49.540;11.932;2023-02-10T03:32:27;98049.34;;;-9.08;100.00
11038;BME280;5572;49.540;11.932;2023-02-10T03:34:54;98053.88;;;-9.10;100.00
11038;BME280;5572;49.540;11.932;2023-02-10T03:37:22;98050.88;;;-9.06;100.00
11038;BME280;5572;49.540;11.932;2023-02-10T03:39:48;98053.63;;;-9.07;100.00
11038;BME280;5572;49.540;11.932;2023-02-10T03:42:15;98040.53;;;-9.07;100.00
11038;BME280;5572;49.540;11.932;2023-02-10T03:44:41;98057.84;;;-9.16;100.00
11038;BME280;5572;49.540;11.932;2023-02-10T03:47:08;98056.09;;;-9.15;100.00
11038;BME280;5572;49.540;11.932;2023-02-10T03:49:35;98053.78;;;-9.09;100.00
11038;BME280;5572;49.540;11.932;2023-02-10T03:52:01;98054.97;;;-9.13;100.00
11038;BME280;5572;49.540;11.932;2023-02-10T03:54:29;98066.66;;;-9.17;100.00
11038;BME280;5572;49.540;11.932;2023-02-10T03:56:56;98055.13;;;-9.14;100.00
11038;BME280;5572;49.540;11.932;2023-02-10T03:59:23;98094.38;;;-9.14;100.00
11038;BME280;5572;49.540;11.932;2023-02-10T04:01:50;98105.09;;;-9.17;100.00
11038;BME280;5572;49.540;11.932;2023-02-10T04:04:18;98101.53;;;-9.16;100.00
11038;BME280;5572;49.540;11.932;2023-02-10T04:06:44;98103.88;;;-9.13;100.00
11038;BME280;5572;49.540;11.932;2023-02-10T04:09:11;98111.16;;;-9.17;100.00
11038;BME280;5572;49.540;11.932;2023-02-10T04:11:39;98112.50;;;-9.22;100.00
11038;BME280;5572;49.540;11.932;2023-02-10T04:14:05;98123.94;;;-9.23;100.00
11038;BME280;5572;49.540;11.932;2023-02-10T04:16:32;98121.84;;;-9.29;100.00
11038;BME280;5572;49.540;11.932;2023-02-10T04:18:59;98125.31;;;-9.28;100.00
11038;BME280;5572;49.540;11.932;2023-02-10T04:21:26;98122.88;;;-9.21;100.00
11038;BME280;5572;49.540;11.932;2023-02-10T04:23:53;98124.78;;;-9.23;100.00
11038;BME280;5572;49.540;11.932;2023-02-10T04:26:21;98118.28;;;-9.28;100.00
11038;BME280;5572;49.540;11.932;2023-02-10T04:28:49;98104.31;;;-9.08;100.00
11038;BME280;5572;49.540;11.932;2023-02-10T04:31:16;98102.13;;;-9.03;100.00
11038;BME280;5572;49.540;11.932;2023-02-10T04:33:42;98107.91;;;-9.09;100.00
11038;BME280;5572;49.540;11.932;2023-02-10T04:36:09;98128.53;;;-9.16;100.00
11038;BME280;5572;49.540;11.932;2023-02-10T04:38:36;98131.78;;;-9.23;100.00
11038;BME280;5572;49.540;11.932;2023-02-10T04:41:03;98140.16;;;-9.29;100.00
11038;BME280;5572;49.540;11.932;2023-02-10T04:43:30;98143.97;;;-9.33;100.00
11038;BME280;5572;49.540;11.932;2023-02-10T04:45:58;98139.03;;;-9.36;100.00
11038;BME280;5572;49.540;11.932;2023-02-10T04:48:25;98144.69;;;-9.31;100.00
11038;BME280;5572;49.540;11.932;2023-02-10T04:50:51;98150.00;;;-9.22;100.00
11038;BME280;5572;49.540;11.932;2023-02-10T04:53:19;98152.38;;;-9.19;100.00
11038;BME280;5572;49.540;11.932;2023-02-10T04:55:46;98148.66;;;-9.16;100.00
11038;BME280;5572;49.540;11.932;2023-02-10T04:58:12;98148.78;;;-9.38;100.00
11038;BME280;5572;49.540;11.932;2023-02-10T05:00:39;98162.41;;;-9.44;100.00
11038;BME280;5572;49.540;11.932;2023-02-10T05:03:07;98161.41;;;-9.43;100.00
11038;BME280;5572;49.540;11.932;2023-02-10T05:05:34;98151.19;;;-9.26;100.00
11038;BME280;5572;49.540;11.932;2023-02-10T05:08:01;98145.16;;;-9.26;100.00
11038;BME280;5572;49.540;11.932;2023-02-10T05:10:28;98153.72;;;-9.24;100.00
11038;BME280;5572;49.540;11.932;2023-02-10T05:12:54;98164.66;;;-9.30;100.00
11038;BME280;5572;49.540;11.932;2023-02-10T05:15:21;98168.38;;;-9.32;100.00
11038;BME280;5572;49.540;11.932;2023-02-10T05:17:47;98168.63;;;-9.35;100.00
11038;BME280;5572;49.540;11.932;2023-02-10T05:20:15;98168.69;;;-9.46;100.00
11038;BME280;5572;49.540;11.932;2023-02-10T05:22:42;98175.53;;;-9.55;100.00
11038;BME280;5572;49.540;11.932;2023-02-10T05:25:08;98181.00;;;-9.58;100.00
11038;BME280;5572;49.540;11.932;2023-02-10T05:27:35;98184.56;;;-9.59;100.00
11038;BME280;5572;49.540;11.932;2023-02-10T05:30:03;98181.72;;;-9.56;100.00
11038;BME280;5572;49.540;11.932;2023-02-10T05:32:30;98179.69;;;-9.52;100.00
11038;BME280;5572;49.540;11.932;2023-02-10T05:34:56;98187.56;;;-9.63;100.00
11038;BME280;5572;49.540;11.932;2023-02-10T05:37:24;98189.75;;;-9.68;100.00
11038;BME280;5572;49.540;11.932;2023-02-10T05:39:51;98193.63;;;-9.63;100.00
11038;BME280;5572;49.540;11.932;2023-02-10T05:42:17;98205.53;;;-9.70;100.00
11038;BME280;5572;49.540;11.932;2023-02-10T05:44:44;98208.50;;;-9.63;100.00
11038;BME280;5572;49.540;11.932;2023-02-10T05:47:10;98211.09;;;-9.63;100.00
11038;BME280;5572;49.540;11.932;2023-02-10T05:49:37;98215.28;;;-9.72;100.00
11038;BME280;5572;49.540;11.932;2023-02-10T05:52:04;98213.88;;;-9.65;100.00
11038;BME280;5572;49.540;11.932;2023-02-10T05:54:32;98221.13;;;-9.68;100.00
11038;BME280;5572;49.540;11.932;2023-02-10T05:57:00;98205.31;;;-9.46;100.00
11038;BME280;5572;49.540;11.932;2023-02-10T05:59:26;98218.00;;;-9.62;100.00
11038;BME280;5572;49.540;11.932;2023-02-10T06:01:53;98239.34;;;-9.78;100.00
11038;BME280;5572;49.540;11.932;2023-02-10T06:04:20;98233.63;;;-9.83;100.00
11038;BME280;5572;49.540;11.932;2023-02-10T06:06:47;98234.31;;;-9.70;100.00
11038;BME280;5572;49.540;11.932;2023-02-10T06:09:14;98241.81;;;-9.76;100.00
11038;BME280;5572;49.540;11.932;2023-02-10T06:11:42;98237.75;;;-10.01;100.00
11038;BME280;5572;49.540;11.932;2023-02-10T06:14:09;98251.63;;;-9.89;100.00
11038;BME280;5572;49.540;11.932;2023-02-10T06:16:35;98244.72;;;-9.79;100.00
11038;BME280;5572;49.540;11.932;2023-02-10T06:19:02;98238.25;;;-9.75;100.00
11038;BME280;5572;49.540;11.932;2023-02-10T06:21:29;98249.78;;;-9.78;100.00
11038;BME280;5572;49.540;11.932;2023-02-10T06:23:56;98267.78;;;-9.95;100.00
11038;BME280;5572;49.540;11.932;2023-02-10T06:26:22;98268.25;;;-9.90;100.00
11038;BME280;5572;49.540;11.932;2023-02-10T06:28:51;98262.88;;;-9.78;100.00
11038;BME280;5572;49.540;11.932;2023-02-10T06:31:17;98263.09;;;-9.70;100.00
11038;BME280;5572;49.540;11.932;2023-02-10T06:33:44;98268.25;;;-9.79;100.00
11038;BME280;5572;49.540;11.932;2023-02-10T06:36:10;98276.69;;;-9.87;100.00
11038;BME280;5572;49.540;11.932;2023-02-10T06:38:37;98272.75;;;-9.81;100.00
11038;BME280;5572;49.540;11.932;2023-02-10T06:41:05;98277.59;;;-9.66;100.00
11038;BME280;5572;49.540;11.932;2023-02-10T06:43:32;98284.69;;;-9.57;100.00
11038;BME280;5572;49.540;11.932;2023-02-10T06:46:00;98281.94;;;-9.55;100.00
11038;BME280;5572;49.540;11.932;2023-02-10T06:48:27;98299.69;;;-9.70;100.00
11038;BME280;5572;49.540;11.932;2023-02-10T06:50:53;98303.22;;;-9.60;100.00
11038;BME280;5572;49.540;11.932;2023-02-10T06:53:20;98290.78;;;-9.36;100.00
11038;BME280;5572;49.540;11.932;2023-02-10T06:55:47;98305.06;;;-9.40;100.00
11038;BME280;5572;49.540;11.932;2023-02-10T06:58:14;98294.94;;;-9.13;100.00
11038;BME280;5572;49.540;11.932;2023-02-10T07:00:41;98289.50;;;-8.90;100.00
11038;BME280;5572;49.540;11.932;2023-02-10T07:03:09;98280.72;;;-8.59;100.00
11038;BME280;5572;49.540;11.932;2023-02-10T07:05:37;98260.88;;;-8.22;100.00
11038;BME280;5572;49.540;11.932;2023-02-10T07:08:05;98261.78;;;-7.93;100.00
11038;BME280;5572;49.540;11.932;2023-02-10T07:10:32;98252.41;;;-7.67;100.00
11038;BME280;5572;49.540;11.932;2023-02-10T07:12:59;98247.19;;;-7.58;100.00
11038;BME280;5572;49.540;11.932;2023-02-10T07:15:26;98241.25;;;-7.69;100.00
11038;BME280;5572;49.540;11.932;2023-02-10T07:17:52;98246.38;;;-7.59;100.00
11038;BME280;5572;49.540;11.932;2023-02-10T07:20:21;98223.38;;;-6.90;100.00
11038;BME280;5572;49.540;11.932;2023-02-10T07:22:48;98209.84;;;-6.50;100.00
11038;BME280;5572;49.540;11.932;2023-02-10T07:25:15;98208.25;;;-6.70;100.00
11038;BME280;5572;49.540;11.932;2023-02-10T07:27:42;98212.06;;;-6.45;100.00
11038;BME280;5572;49.540;11.932;2023-02-10T07:30:09;98199.41;;;-6.32;100.00
11038;BME280;5572;49.540;11.932;2023-02-10T07:32:36;98202.84;;;-6.32;100.00
11038;BME280;5572;49.540;11.932;2023-02-10T07:35:03;98206.22;;;-6.12;100.00
11038;BME280;5572;49.540;11.932;2023-02-10T07:37:31;98202.03;;;-6.05;100.00
11038;BME280;5572;49.540;11.932;2023-02-10T07:39:58;98210.16;;;-5.99;100.00
11038;BME280;5572;49.540;11.932;2023-02-10T07:42:24;98199.94;;;-6.02;100.00
11038;BME280;5572;49.540;11.932;2023-02-10T07:44:51;98205.25;;;-6.11;100.00
11038;BME280;5572;49.540;11.932;2023-02-10T07:47:17;98214.63;;;-5.99;100.00
11038;BME280;5572;49.540;11.932;2023-02-10T07:49:44;98210.22;;;-6.08;100.00
11038;BME280;5572;49.540;11.932;2023-02-10T07:52:10;98218.84;;;-5.72;100.00
11038;BME280;5572;49.540;11.932;2023-02-10T07:54:38;98219.28;;;-5.93;100.00
11038;BME280;5572;49.540;11.932;2023-02-10T07:57:05;98221.16;;;-5.69;100.00
11038;BME280;5572;49.540;11.932;2023-02-10T07:59:32;98230.91;;;-5.52;100.00
11038;BME280;5572;49.540;11.932;2023-02-10T08:01:58;98222.09;;;-5.25;100.00
11038;BME280;5572;49.540;11.932;2023-02-10T08:04:25;98230.50;;;-5.57;100.00
11038;BME280;5572;49.540;11.932;2023-02-10T08:06:51;98226.91;;;-5.38;100.00
11038;BME280;5572;49.540;11.932;2023-02-10T08:09:18;98221.78;;;-5.05;100.00
11038;BME280;5572;49.540;11.932;2023-02-10T08:11:46;98220.44;;;-5.26;100.00
11038;BME280;5572;49.540;11.932;2023-02-10T08:14:12;98225.81;;;-4.93;100.00
11038;BME280;5572;49.540;11.932;2023-02-10T08:16:39;98230.31;;;-5.28;100.00
11038;BME280;5572;49.540;11.932;2023-02-10T08:19:05;98247.59;;;-5.61;100.00
11038;BME280;5572;49.540;11.932;2023-02-10T08:21:32;98262.28;;;-5.23;100.00
11038;BME280;5572;49.540;11.932;2023-02-10T08:23:58;98238.78;;;-5.00;100.00
11038;BME280;5572;49.540;11.932;2023-02-10T08:26:25;98259.63;;;-4.71;100.00
11038;BME280;5572;49.540;11.932;2023-02-10T08:28:53;98261.63;;;-4.65;100.00
11038;BME280;5572;49.540;11.932;2023-02-10T08:31:21;98264.09;;;-4.38;100.00
11038;BME280;5572;49.540;11.932;2023-02-10T08:33:47;98265.63;;;-4.61;100.00
11038;BME280;5572;49.540;11.932;2023-02-10T08:36:15;98272.31;;;-4.49;100.00
11038;BME280;5572;49.540;11.932;2023-02-10T08:38:43;98263.06;;;-4.20;100.00
11038;BME280;5572;49.540;11.932;2023-02-10T08:41:09;98262.06;;;-4.27;100.00
11038;BME280;5572;49.540;11.932;2023-02-10T08:43:36;98261.59;;;-3.89;100.00
11038;BME280;5572;49.540;11.932;2023-02-10T08:46:04;98246.22;;;-3.94;100.00
11038;BME280;5572;49.540;11.932;2023-02-10T08:48:32;98256.44;;;-3.57;100.00
11038;BME280;5572;49.540;11.932;2023-02-10T08:50:58;98256.16;;;-3.31;100.00
11038;BME280;5572;49.540;11.932;2023-02-10T08:53:26;98259.88;;;-3.65;100.00
11038;BME280;5572;49.540;11.932;2023-02-10T08:55:56;98268.50;;;-3.47;100.00
11038;BME280;5572;49.540;11.932;2023-02-10T08:58:22;98260.84;;;-3.09;100.00
11038;BME280;5572;49.540;11.932;2023-02-10T10:40:20;98725.63;;;2.52;100.00
11038;BME280;5572;49.540;11.932;2023-02-10T10:42:50;98766.31;;;2.10;100.00
11038;BME280;5572;49.540;11.932;2023-02-10T10:45:22;98752.69;;;2.63;100.00
11038;BME280;5572;49.540;11.932;2023-02-10T10:47:54;98793.84;;;2.54;100.00
11038;BME280;5572;49.540;11.932;2023-02-10T10:50:23;98821.31;;;2.26;100.00
11038;BME280;5572;49.540;11.932;2023-02-10T10:52:51;98816.19;;;2.67;100.00
11038;BME280;5572;49.540;11.932;2023-02-10T10:55:22;98866.19;;;2.08;100.00
11038;BME280;5572;49.540;11.932;2023-02-10T10:57:52;98870.47;;;2.46;100.00
11038;BME280;5572;49.540;11.932;2023-02-10T11:00:21;98883.03;;;2.59;100.00
11038;BME280;5572;49.540;11.932;2023-02-10T11:02:53;98920.28;;;2.16;100.00
11038;BME280;5572;49.540;11.932;2023-02-10T11:05:21;98934.56;;;2.23;100.00
11038;BME280;5572;49.540;11.932;2023-02-10T11:07:49;98933.22;;;2.42;100.00
11038;BME280;5572;49.540;11.932;2023-02-10T11:10:25;98959.41;;;2.01;100.00
11038;BME280;5572;49.540;11.932;2023-02-10T11:12:53;98963.94;;;2.15;100.00
11038;BME280;5572;49.540;11.932;2023-02-10T11:15:33;98979.94;;;2.15;100.00
11038;BME280;5572;49.540;11.932;2023-02-10T11:18:02;98982.78;;;2.36;100.00
11038;BME280;5572;49.540;11.932;2023-02-10T11:20:32;98997.34;;;2.70;100.00
11038;BME280;5572;49.540;11.932;2023-02-10T11:23:01;99013.59;;;2.24;100.00
11038;BME280;5572;49.540;11.932;2023-02-10T11:25:31;99035.22;;;2.29;100.00
11038;BME280;5572;49.540;11.932;2023-02-10T11:27:59;99041.75;;;2.49;100.00
11038;BME280;5572;49.540;11.932;2023-02-10T11:30:28;99036.13;;;2.66;100.00
11038;BME280;5572;49.540;11.932;2023-02-10T11:32:56;99064.56;;;2.52;100.00
11038;BME280;5572;49.540;11.932;2023-02-10T11:35:24;99063.94;;;2.72;100.00
11038;BME280;5572;49.540;11.932;2023-02-10T11:37:53;99064.88;;;2.79;100.00
11038;BME280;5572;49.540;11.932;2023-02-10T11:40:24;99084.38;;;2.57;100.00
11038;BME280;5572;49.540;11.932;2023-02-10T11:46:31;99129.78;;;2.27;100.00
11038;BME280;5572;49.540;11.932;2023-02-10T11:48:59;99147.91;;;2.01;100.00
11038;BME280;5572;49.540;11.932;2023-02-10T11:51:26;99167.06;;;2.04;100.00
11038;BME280;5572;49.540;11.932;2023-02-10T11:53:54;99164.34;;;2.20;100.00
11038;BME280;5572;49.540;11.932;2023-02-10T11:56:24;99148.19;;;2.74;100.00
11038;BME280;5572;49.540;11.932;2023-02-10T11:59:17;99156.72;;;2.70;100.00
11038;BME280;5572;49.540;11.932;2023-02-10T12:01:53;99165.31;;;2.80;100.00
11038;BME280;5572;49.540;11.932;2023-02-10T12:04:57;99170.84;;;2.78;100.00
11038;BME280;5572;49.540;11.932;2023-02-10T12:07:44;99181.28;;;2.65;100.00
11038;BME280;5572;49.540;11.932;2023-02-10T12:10:17;99192.31;;;2.85;100.00
11038;BME280;5572;49.540;11.932;2023-02-10T12:12:54;99204.72;;;3.00;100.00
11038;BME280;5572;49.540;11.932;2023-02-10T12:15:28;99221.34;;;2.88;100.00
11038;BME280;5572;49.540;11.932;2023-02-10T12:18:12;99219.53;;;3.11;100.00
11038;BME280;5572;49.540;11.932;2023-02-10T12:20:55;99215.03;;;3.34;100.00
11038;BME280;5572;49.540;11.932;2023-02-10T12:23:38;99195.06;;;3.22;100.00
11038;BME280;5572;49.540;11.932;2023-02-10T12:26:18;99220.81;;;3.15;100.00
11038;BME280;5572;49.540;11.932;2023-02-10T12:28:57;99255.75;;;3.36;100.00
11038;BME280;5572;49.540;11.932;2023-02-10T12:31:38;99239.97;;;3.26;100.00
11038;BME280;5572;49.540;11.932;2023-02-10T12:34:26;99235.09;;;3.30;100.00
11038;BME280;5572;49.540;11.932;2023-02-10T12:37:01;99235.91;;;3.52;100.00
11038;BME280;5572;49.540;11.932;2023-02-10T12:39:36;99228.97;;;3.43;100.00
11038;BME280;5572;49.540;11.932;2023-02-10T12:42:15;99223.13;;;3.62;100.00
11038;BME280;5572;49.540;11.932;2023-02-10T12:44:54;99246.84;;;3.43;100.00
11038;BME280;5572;49.540;11.932;2023-02-10T12:47:32;99271.00;;;3.05;100.00
11038;BME280;5572;49.540;11.932;2023-02-10T12:50:20;99288.75;;;3.20;100.00
11038;BME280;5572;49.540;11.932;2023-02-10T12:52:53;99300.13;;;2.92;100.00
11038;BME280;5572;49.540;11.932;2023-02-10T12:55:23;99292.28;;;2.90;100.00
11038;BME280;5572;49.540;11.932;2023-02-10T12:57:55;99300.50;;;3.19;100.00
11038;BME280;5572;49.540;11.932;2023-02-10T13:00:27;99300.13;;;2.92;100.00
11038;BME280;5572;49.540;11.932;2023-02-10T13:02:58;99338.47;;;2.60;100.00
11038;BME280;5572;49.540;11.932;2023-02-10T13:05:31;99340.88;;;2.86;100.00
11038;BME280;5572;49.540;11.932;2023-02-10T13:08:00;99348.72;;;2.87;100.00
11038;BME280;5572;49.540;11.932;2023-02-10T13:10:31;99323.41;;;3.14;100.00
11038;BME280;5572;49.540;11.932;2023-02-10T13:13:03;99322.41;;;3.07;100.00
11038;BME280;5572;49.540;11.932;2023-02-10T13:15:33;99315.25;;;3.07;100.00
11038;BME280;5572;49.540;11.932;2023-02-10T13:18:14;99326.69;;;3.16;100.00
11038;BME280;5572;49.540;11.932;2023-02-10T13:20:49;99336.84;;;2.90;100.00
11038;BME280;5572;49.540;11.932;2023-02-10T13:23:22;99339.19;;;2.93;100.00
11038;BME280;5572;49.540;11.932;2023-02-10T13:26:02;99350.47;;;2.64;100.00
11038;BME280;5572;49.540;11.932;2023-02-10T13:28:42;99360.94;;;2.82;100.00
11038;BME280;5572;49.540;11.932;2023-02-10T13:31:29;99388.94;;;2.86;100.00
11038;BME280;5572;49.540;11.932;2023-02-10T13:34:03;99383.09;;;2.90;100.00
11038;BME280;5572;49.540;11.932;2023-02-10T13:36:34;99388.94;;;2.86;100.00
11038;BME280;5572;49.540;11.932;2023-02-10T13:39:04;99384.19;;;2.65;100.00
11038;BME280;5572;49.540;11.932;2023-02-10T13:41:34;99390.97;;;2.76;100.00
11038;BME280;5572;49.540;11.932;2023-02-10T13:44:17;99389.78;;;2.86;100.00
11038;BME280;5572;49.540;11.932;2023-02-10T13:46:46;99402.47;;;2.84;100.00
11038;BME280;5572;49.540;11.932;2023-02-10T13:49:17;99422.03;;;2.69;100.00
11038;BME280;5572;49.540;11.932;2023-02-10T13:51:46;99437.75;;;2.56;100.00
11038;BME280;5572;49.540;11.932;2023-02-10T13:54:24;99446.09;;;2.45;100.00
11038;BME280;5572;49.540;11.932;2023-02-10T13:56:52;99441.22;;;2.72;100.00
11038;BME280;5572;49.540;11.932;2023-02-10T13:59:26;99441.06;;;2.66;100.00
11038;BME280;5572;49.540;11.932;2023-02-10T14:02:08;99449.41;;;2.71;100.00
11038;BME280;5572;49.540;11.932;2023-02-10T14:04:40;99461.94;;;2.78;100.00
11038;BME280;5572;49.540;11.932;2023-02-10T14:07:30;99459.88;;;2.80;100.00
11038;BME280;5572;49.540;11.932;2023-02-10T14:10:25;99460.94;;;2.79;100.00
11038;BME280;5572;49.540;11.932;2023-02-10T14:12:54;99465.94;;;2.66;100.00
11038;BME280;5572;49.540;11.932;2023-02-10T14:15:24;99466.75;;;2.67;100.00
11038;BME280;5572;49.540;11.932;2023-02-10T14:18:00;99478.75;;;2.79;100.00
11038;BME280;5572;49.540;11.932;2023-02-10T14:20:31;99471.81;;;2.54;100.00
11038;BME280;5572;49.540;11.932;2023-02-10T14:23:00;99481.97;;;2.51;100.00
11038;BME280;5572;49.540;11.932;2023-02-10T14:25:38;99480.63;;;2.54;100.00
11038;BME280;5572;49.540;11.932;2023-02-10T14:28:18;99481.09;;;2.66;100.00
11038;BME280;5572;49.540;11.932;2023-02-10T14:30:50;99489.63;;;2.61;100.00
11038;BME280;5572;49.540;11.932;2023-02-10T14:33:21;99489.97;;;2.51;100.00
11038;BME280;5572;49.540;11.932;2023-02-10T14:35:52;99496.66;;;2.54;100.00
11038;BME280;5572;49.540;11.932;2023-02-10T14:38:23;99494.16;;;2.61;100.00
11038;BME280;5572;49.540;11.932;2023-02-10T14:40:51;99502.81;;;2.63;100.00
11038;BME280;5572;49.540;11.932;2023-02-10T14:43:23;99506.81;;;2.59;100.00
11038;BME280;5572;49.540;11.932;2023-02-10T14:45:50;99502.16;;;2.69;100.00
11038;BME280;5572;49.540;11.932;2023-02-10T14:48:19;99513.47;;;2.55;100.00
11038;BME280;5572;49.540;11.932;2023-02-10T14:51:02;99518.19;;;2.53;100.00
11038;BME280;5572;49.540;11.932;2023-02-10T14:53:31;99518.34;;;2.59;100.00